sensor_id;sensor_type;location;lat;lon;timestamp;P1;durP1;ratioP1;P2;durP2;ratioP2
9322;SDS011;4700;48.822;9.270;2023-05-10T00:00:58;215.20;;;200.50;;
9322;SDS011;4700;48.822;9.270;2023-05-10T00:03:45;229.30;;;215.60;;
9322;SDS011;4700;48.822;9.270;2023-05-10T00:06:32;236.87;;;222.40;;
9322;SDS011;4700;48.822;9.270;2023-05-10T00:09:17;239.93;;;225.67;;
9322;SDS011;4700;48.822;9.270;2023-05-10T00:12:03;224.33;;;210.47;;
9322;SDS011;4700;48.822;9.270;2023-05-10T00:14:50;237.07;;;224.00;;
9322;SDS011;4700;48.822;9.270;2023-05-10T00:17:35;256.40;;;242.60;;
9322;SDS011;4700;48.822;9.270;2023-05-10T00:20:22;259.33;;;245.67;;
9322;SDS011;4700;48.822;9.270;2023-05-10T00:23:08;239.03;;;224.93;;
9322;SDS011;4700;48.822;9.270;2023-05-10T00:25:54;247.53;;;232.70;;
9322;SDS011;4700;48.822;9.270;2023-05-10T00:28:40;275.87;;;259.63;;
9322;SDS011;4700;48.822;9.270;2023-05-10T00:31:26;257.87;;;243.13;;
9322;SDS011;4700;48.822;9.270;2023-05-10T00:34:11;269.20;;;253.30;;
9322;SDS011;4700;48.822;9.270;2023-05-10T00:36:59;253.37;;;237.83;;
9322;SDS011;4700;48.822;9.270;2023-05-10T00:39:45;282.97;;;267.13;;
9322;SDS011;4700;48.822;9.270;2023-05-10T00:42:30;290.63;;;274.63;;
9322;SDS011;4700;48.822;9.270;2023-05-10T00:45:16;255.20;;;240.10;;
9322;SDS011;4700;48.822;9.270;2023-05-10T00:48:03;254.43;;;239.30;;
9322;SDS011;4700;48.822;9.270;2023-05-10T00:50:49;256.63;;;241.57;;
9322;SDS011;4700;48.822;9.270;2023-05-10T00:53:27;262.73;;;248.43;;
9322;SDS011;4700;48.822;9.270;2023-05-10T00:56:16;266.63;;;251.40;;
9322;SDS011;4700;48.822;9.270;2023-05-10T00:59:02;275.03;;;259.10;;
9322;SDS011;4700;48.822;9.270;2023-05-10T01:01:47;265.73;;;250.20;;
9322;SDS011;4700;48.822;9.270;2023-05-10T01:04:33;249.67;;;234.70;;
9322;SDS011;4700;48.822;9.270;2023-05-10T01:07:20;247.30;;;232.33;;
9322;SDS011;4700;48.822;9.270;2023-05-10T01:10:09;285.17;;;269.47;;
9322;SDS011;4700;48.822;9.270;2023-05-10T01:12:55;280.30;;;264.67;;
9322;SDS011;4700;48.822;9.270;2023-05-10T01:15:41;275.57;;;260.37;;
9322;SDS011;4700;48.822;9.270;2023-05-10T01:18:29;271.30;;;256.27;;
9322;SDS011;4700;48.822;9.270;2023-05-10T01:21:19;290.27;;;274.20;;
9322;SDS011;4700;48.822;9.270;2023-05-10T01:24:33;260.13;;;243.53;;
9322;SDS011;4700;48.822;9.270;2023-05-10T01:27:42;272.90;;;255.97;;
9322;SDS011;4700;48.822;9.270;2023-05-10T01:30:56;275.47;;;258.43;;
9322;SDS011;4700;48.822;9.270;2023-05-10T01:34:03;277.30;;;259.97;;
9322;SDS011;4700;48.822;9.270;2023-05-10T01:42:06;231.03;;;215.77;;
9322;SDS011;4700;48.822;9.270;2023-05-10T01:55:15;247.40;;;232.07;;
9322;SDS011;4700;48.822;9.270;2023-05-10T02:00:39;164.30;;;148.20;;
9322;SDS011;4700;48.822;9.270;2023-05-10T02:03:15;253.30;;;230.93;;
9322;SDS011;4700;48.822;9.270;2023-05-10T02:06:03;250.20;;;233.60;;
9322;SDS011;4700;48.822;9.270;2023-05-10T02:08:50;255.40;;;238.77;;
9322;SDS011;4700;48.822;9.270;2023-05-10T02:11:39;277.07;;;259.93;;
9322;SDS011;4700;48.822;9.270;2023-05-10T02:14:26;278.90;;;261.30;;
9322;SDS011;4700;48.822;9.270;2023-05-10T02:17:13;196.80;;;182.20;;
9322;SDS011;4700;48.822;9.270;2023-05-10T02:20:01;163.80;;;144.50;;
9322;SDS011;4700;48.822;9.270;2023-05-10T02:25:24;275.40;;;258.33;;
9322;SDS011;4700;48.822;9.270;2023-05-10T02:28:13;264.67;;;248.30;;
9322;SDS011;4700;48.822;9.270;2023-05-10T02:31:00;274.80;;;257.43;;
9322;SDS011;4700;48.822;9.270;2023-05-10T02:33:46;273.03;;;255.90;;
9322;SDS011;4700;48.822;9.270;2023-05-10T02:39:08;274.07;;;257.27;;
9322;SDS011;4700;48.822;9.270;2023-05-10T02:41:56;263.33;;;246.23;;
9322;SDS011;4700;48.822;9.270;2023-05-10T02:44:44;247.37;;;230.90;;
9322;SDS011;4700;48.822;9.270;2023-05-10T02:50:12;240.73;;;224.87;;
9322;SDS011;4700;48.822;9.270;2023-05-10T02:52:59;257.63;;;240.80;;
9322;SDS011;4700;48.822;9.270;2023-05-10T03:05:47;246.33;;;226.00;;
9322;SDS011;4700;48.822;9.270;2023-05-10T03:08:33;176.20;;;156.10;;
9322;SDS011;4700;48.822;9.270;2023-05-10T03:11:25;190.43;;;162.53;;
9322;SDS011;4700;48.822;9.270;2023-05-10T03:14:25;179.73;;;131.30;;
9322;SDS011;4700;48.822;9.270;2023-05-10T03:17:25;188.77;;;130.03;;
9322;SDS011;4700;48.822;9.270;2023-05-10T03:20:16;196.93;;;144.30;;
9322;SDS011;4700;48.822;9.270;2023-05-10T03:23:11;192.97;;;132.83;;
9322;SDS011;4700;48.822;9.270;2023-05-10T03:25:58;181.47;;;118.17;;
9322;SDS011;4700;48.822;9.270;2023-05-10T03:28:45;177.03;;;115.73;;
9322;SDS011;4700;48.822;9.270;2023-05-10T03:31:33;189.80;;;122.07;;
9322;SDS011;4700;48.822;9.270;2023-05-10T03:34:22;178.67;;;117.17;;
9322;SDS011;4700;48.822;9.270;2023-05-10T03:37:09;180.90;;;118.00;;
9322;SDS011;4700;48.822;9.270;2023-05-10T03:39:56;183.23;;;122.07;;
9322;SDS011;4700;48.822;9.270;2023-05-10T03:42:41;188.10;;;122.47;;
9322;SDS011;4700;48.822;9.270;2023-05-10T03:45:28;181.20;;;116.97;;
9322;SDS011;4700;48.822;9.270;2023-05-10T03:48:14;182.93;;;122.53;;
9322;SDS011;4700;48.822;9.270;2023-05-10T03:51:00;189.03;;;123.53;;
9322;SDS011;4700;48.822;9.270;2023-05-10T03:53:46;177.27;;;114.97;;
9322;SDS011;4700;48.822;9.270;2023-05-10T03:56:33;186.07;;;124.03;;
9322;SDS011;4700;48.822;9.270;2023-05-10T03:59:19;184.83;;;125.67;;
9322;SDS011;4700;48.822;9.270;2023-05-10T04:02:05;194.23;;;142.03;;
9322;SDS011;4700;48.822;9.270;2023-05-10T04:04:50;185.47;;;122.70;;
9322;SDS011;4700;48.822;9.270;2023-05-10T04:07:36;197.57;;;135.60;;
9322;SDS011;4700;48.822;9.270;2023-05-10T04:10:22;187.87;;;129.80;;
9322;SDS011;4700;48.822;9.270;2023-05-10T04:13:09;192.27;;;138.37;;
9322;SDS011;4700;48.822;9.270;2023-05-10T04:15:55;189.20;;;125.70;;
9322;SDS011;4700;48.822;9.270;2023-05-10T04:18:40;186.27;;;125.77;;
9322;SDS011;4700;48.822;9.270;2023-05-10T04:21:26;181.70;;;129.13;;
9322;SDS011;4700;48.822;9.270;2023-05-10T04:24:12;185.43;;;138.13;;
9322;SDS011;4700;48.822;9.270;2023-05-10T04:26:58;193.10;;;148.83;;
9322;SDS011;4700;48.822;9.270;2023-05-10T04:29:46;188.80;;;144.67;;
9322;SDS011;4700;48.822;9.270;2023-05-10T04:32:31;179.40;;;127.30;;
9322;SDS011;4700;48.822;9.270;2023-05-10T04:35:17;189.77;;;145.47;;
9322;SDS011;4700;48.822;9.270;2023-05-10T04:38:03;188.73;;;145.17;;
9322;SDS011;4700;48.822;9.270;2023-05-10T04:40:49;179.27;;;136.87;;
9322;SDS011;4700;48.822;9.270;2023-05-10T04:43:35;200.30;;;176.40;;
9322;SDS011;4700;48.822;9.270;2023-05-10T04:46:23;220.53;;;201.57;;
9322;SDS011;4700;48.822;9.270;2023-05-10T04:49:09;204.37;;;173.90;;
9322;SDS011;4700;48.822;9.270;2023-05-10T04:51:54;197.40;;;162.60;;
9322;SDS011;4700;48.822;9.270;2023-05-10T04:54:40;192.33;;;160.70;;
9322;SDS011;4700;48.822;9.270;2023-05-10T04:57:26;239.20;;;220.30;;
9322;SDS011;4700;48.822;9.270;2023-05-10T05:00:12;228.83;;;210.20;;
9322;SDS011;4700;48.822;9.270;2023-05-10T05:03:00;200.13;;;178.27;;
9322;SDS011;4700;48.822;9.270;2023-05-10T05:05:45;215.83;;;195.17;;
9322;SDS011;4700;48.822;9.270;2023-05-10T05:08:31;246.37;;;228.07;;
9322;SDS011;4700;48.822;9.270;2023-05-10T05:11:17;265.43;;;245.33;;
9322;SDS011;4700;48.822;9.270;2023-05-10T05:14:03;229.13;;;209.93;;
9322;SDS011;4700;48.822;9.270;2023-05-10T05:16:49;225.07;;;206.87;;
9322;SDS011;4700;48.822;9.270;2023-05-10T05:19:36;226.03;;;204.43;;
9322;SDS011;4700;48.822;9.270;2023-05-10T05:22:22;252.50;;;232.73;;
9322;SDS011;4700;48.822;9.270;2023-05-10T05:25:11;248.20;;;228.33;;
9322;SDS011;4700;48.822;9.270;2023-05-10T05:27:56;242.43;;;222.87;;
9322;SDS011;4700;48.822;9.270;2023-05-10T05:30:42;257.90;;;238.70;;
9322;SDS011;4700;48.822;9.270;2023-05-10T05:33:28;260.57;;;242.17;;
9322;SDS011;4700;48.822;9.270;2023-05-10T05:36:15;257.13;;;237.80;;
9322;SDS011;4700;48.822;9.270;2023-05-10T05:39:01;248.90;;;229.70;;
9322;SDS011;4700;48.822;9.270;2023-05-10T05:41:47;228.53;;;210.43;;
9322;SDS011;4700;48.822;9.270;2023-05-10T05:44:33;264.50;;;244.83;;
9322;SDS011;4700;48.822;9.270;2023-05-10T05:47:19;263.83;;;243.90;;
9322;SDS011;4700;48.822;9.270;2023-05-10T05:50:05;248.93;;;227.63;;
9322;SDS011;4700;48.822;9.270;2023-05-10T05:52:53;242.33;;;222.03;;
9322;SDS011;4700;48.822;9.270;2023-05-10T05:55:40;221.20;;;201.50;;
9322;SDS011;4700;48.822;9.270;2023-05-10T05:58:36;222.20;;;202.07;;
9322;SDS011;4700;48.822;9.270;2023-05-10T06:01:24;221.70;;;179.87;;
9322;SDS011;4700;48.822;9.270;2023-05-10T06:04:10;221.70;;;184.97;;
9322;SDS011;4700;48.822;9.270;2023-05-10T06:06:56;214.40;;;179.77;;
9322;SDS011;4700;48.822;9.270;2023-05-10T06:09:43;256.80;;;233.03;;
9322;SDS011;4700;48.822;9.270;2023-05-10T06:12:28;225.10;;;200.13;;
9322;SDS011;4700;48.822;9.270;2023-05-10T06:15:14;221.47;;;198.23;;
9322;SDS011;4700;48.822;9.270;2023-05-10T06:18:00;215.37;;;189.20;;
9322;SDS011;4700;48.822;9.270;2023-05-10T06:20:46;253.67;;;233.07;;
9322;SDS011;4700;48.822;9.270;2023-05-10T06:23:33;213.23;;;188.63;;
9322;SDS011;4700;48.822;9.270;2023-05-10T06:26:20;207.20;;;180.40;;
9322;SDS011;4700;48.822;9.270;2023-05-10T06:29:11;195.70;;;173.93;;
9322;SDS011;4700;48.822;9.270;2023-05-10T06:32:12;222.57;;;199.20;;
9322;SDS011;4700;48.822;9.270;2023-05-10T06:34:57;215.83;;;193.57;;
9322;SDS011;4700;48.822;9.270;2023-05-10T06:37:43;221.77;;;202.90;;
9322;SDS011;4700;48.822;9.270;2023-05-10T06:40:30;206.17;;;177.97;;
9322;SDS011;4700;48.822;9.270;2023-05-10T06:43:18;210.90;;;186.57;;
9322;SDS011;4700;48.822;9.270;2023-05-10T06:46:04;211.93;;;189.47;;
9322;SDS011;4700;48.822;9.270;2023-05-10T06:48:50;213.57;;;191.73;;
9322;SDS011;4700;48.822;9.270;2023-05-10T06:51:36;207.40;;;184.67;;
9322;SDS011;4700;48.822;9.270;2023-05-10T06:54:21;226.27;;;206.97;;
9322;SDS011;4700;48.822;9.270;2023-05-10T06:57:07;211.20;;;188.10;;
9322;SDS011;4700;48.822;9.270;2023-05-10T06:59:54;204.73;;;184.17;;
9322;SDS011;4700;48.822;9.270;2023-05-10T07:02:40;244.07;;;224.33;;
9322;SDS011;4700;48.822;9.270;2023-05-10T07:05:26;245.83;;;226.53;;
9322;SDS011;4700;48.822;9.270;2023-05-10T07:08:13;278.40;;;256.30;;
9322;SDS011;4700;48.822;9.270;2023-05-10T07:10:59;230.33;;;210.10;;
9322;SDS011;4700;48.822;9.270;2023-05-10T07:13:45;288.27;;;269.37;;
9322;SDS011;4700;48.822;9.270;2023-05-10T07:16:33;282.63;;;261.73;;
9322;SDS011;4700;48.822;9.270;2023-05-10T07:19:19;257.90;;;237.37;;
9322;SDS011;4700;48.822;9.270;2023-05-10T07:22:07;264.90;;;246.33;;
9322;SDS011;4700;48.822;9.270;2023-05-10T07:24:53;256.83;;;238.27;;
9322;SDS011;4700;48.822;9.270;2023-05-10T07:27:39;254.13;;;234.17;;
9322;SDS011;4700;48.822;9.270;2023-05-10T07:30:25;261.00;;;241.37;;
9322;SDS011;4700;48.822;9.270;2023-05-10T07:33:13;261.47;;;241.60;;
9322;SDS011;4700;48.822;9.270;2023-05-10T07:36:00;252.83;;;234.77;;
9322;SDS011;4700;48.822;9.270;2023-05-10T07:38:46;255.77;;;236.20;;
9322;SDS011;4700;48.822;9.270;2023-05-10T07:41:33;259.40;;;238.43;;
9322;SDS011;4700;48.822;9.270;2023-05-10T07:44:21;296.10;;;272.00;;
9322;SDS011;4700;48.822;9.270;2023-05-10T07:47:07;254.83;;;234.10;;
9322;SDS011;4700;48.822;9.270;2023-05-10T07:49:54;246.33;;;225.80;;
9322;SDS011;4700;48.822;9.270;2023-05-10T07:52:40;238.40;;;220.23;;
9322;SDS011;4700;48.822;9.270;2023-05-10T07:55:26;290.43;;;267.20;;
9322;SDS011;4700;48.822;9.270;2023-05-10T07:58:12;275.53;;;253.27;;
9322;SDS011;4700;48.822;9.270;2023-05-10T08:00:57;263.73;;;242.07;;
9322;SDS011;4700;48.822;9.270;2023-05-10T08:03:43;284.83;;;262.67;;
9322;SDS011;4700;48.822;9.270;2023-05-10T08:06:30;279.63;;;258.47;;
9322;SDS011;4700;48.822;9.270;2023-05-10T08:09:17;272.60;;;251.70;;
9322;SDS011;4700;48.822;9.270;2023-05-10T08:12:08;263.90;;;243.97;;
9322;SDS011;4700;48.822;9.270;2023-05-10T08:14:53;240.93;;;223.47;;
9322;SDS011;4700;48.822;9.270;2023-05-10T08:17:39;246.70;;;228.70;;
9322;SDS011;4700;48.822;9.270;2023-05-10T08:20:29;235.73;;;218.70;;
9322;SDS011;4700;48.822;9.270;2023-05-10T08:23:16;256.87;;;236.37;;
9322;SDS011;4700;48.822;9.270;2023-05-10T08:26:02;258.80;;;239.57;;
9322;SDS011;4700;48.822;9.270;2023-05-10T08:28:49;273.87;;;253.60;;
9322;SDS011;4700;48.822;9.270;2023-05-10T08:31:37;254.23;;;234.87;;
9322;SDS011;4700;48.822;9.270;2023-05-10T08:34:23;243.67;;;225.30;;
9322;SDS011;4700;48.822;9.270;2023-05-10T08:37:08;276.47;;;255.10;;
9322;SDS011;4700;48.822;9.270;2023-05-10T08:39:58;305.70;;;277.63;;
9322;SDS011;4700;48.822;9.270;2023-05-10T08:42:45;248.57;;;225.03;;
9322;SDS011;4700;48.822;9.270;2023-05-10T08:45:37;297.07;;;274.33;;
9322;SDS011;4700;48.822;9.270;2023-05-10T08:48:24;253.70;;;233.67;;
9322;SDS011;4700;48.822;9.270;2023-05-10T08:51:15;276.00;;;253.23;;
9322;SDS011;4700;48.822;9.270;2023-05-10T08:54:07;298.30;;;273.00;;
9322;SDS011;4700;48.822;9.270;2023-05-10T08:56:55;251.27;;;232.90;;
9322;SDS011;4700;48.822;9.270;2023-05-10T08:59:42;245.33;;;225.37;;
9322;SDS011;4700;48.822;9.270;2023-05-10T09:02:28;259.70;;;239.73;;
9322;SDS011;4700;48.822;9.270;2023-05-10T09:05:15;267.20;;;246.43;;
9322;SDS011;4700;48.822;9.270;2023-05-10T09:08:01;264.07;;;241.63;;
9322;SDS011;4700;48.822;9.270;2023-05-10T09:10:36;259.27;;;241.10;;
9322;SDS011;4700;48.822;9.270;2023-05-10T09:13:25;272.17;;;250.60;;
9322;SDS011;4700;48.822;9.270;2023-05-10T09:16:11;275.50;;;253.53;;
9322;SDS011;4700;48.822;9.270;2023-05-10T09:18:57;265.40;;;245.67;;
9322;SDS011;4700;48.822;9.270;2023-05-10T09:21:43;271.90;;;252.13;;
9322;SDS011;4700;48.822;9.270;2023-05-10T09:24:29;198.73;;;187.00;;
9322;SDS011;4700;48.822;9.270;2023-05-10T09:27:15;211.27;;;197.93;;
9322;SDS011;4700;48.822;9.270;2023-05-10T09:30:02;183.43;;;172.43;;
9322;SDS011;4700;48.822;9.270;2023-05-10T09:32:49;201.57;;;189.43;;
9322;SDS011;4700;48.822;9.270;2023-05-10T09:35:35;154.60;;;145.20;;
9322;SDS011;4700;48.822;9.270;2023-05-10T09:38:23;169.30;;;157.00;;
9322;SDS011;4700;48.822;9.270;2023-05-10T09:41:15;163.93;;;151.70;;
9322;SDS011;4700;48.822;9.270;2023-05-10T09:44:01;153.90;;;143.90;;
9322;SDS011;4700;48.822;9.270;2023-05-10T09:46:52;163.67;;;153.17;;
9322;SDS011;4700;48.822;9.270;2023-05-10T09:49:37;171.90;;;160.50;;
9322;SDS011;4700;48.822;9.270;2023-05-10T09:52:24;158.90;;;148.90;;
9322;SDS011;4700;48.822;9.270;2023-05-10T09:55:10;143.97;;;134.00;;
9322;SDS011;4700;48.822;9.270;2023-05-10T09:57:59;154.27;;;142.33;;
9322;SDS011;4700;48.822;9.270;2023-05-10T10:00:46;150.50;;;140.07;;
9322;SDS011;4700;48.822;9.270;2023-05-10T10:03:40;144.07;;;135.10;;
9322;SDS011;4700;48.822;9.270;2023-05-10T10:06:27;157.03;;;145.77;;
9322;SDS011;4700;48.822;9.270;2023-05-10T10:09:15;153.07;;;140.73;;
9322;SDS011;4700;48.822;9.270;2023-05-10T10:12:02;129.77;;;122.10;;
9322;SDS011;4700;48.822;9.270;2023-05-10T10:14:48;150.80;;;140.07;;
9322;SDS011;4700;48.822;9.270;2023-05-10T10:17:38;148.20;;;138.13;;
9322;SDS011;4700;48.822;9.270;2023-05-10T10:20:27;148.73;;;139.17;;
9322;SDS011;4700;48.822;9.270;2023-05-10T10:23:13;163.00;;;151.97;;
9322;SDS011;4700;48.822;9.270;2023-05-10T10:25:59;143.10;;;133.73;;
9322;SDS011;4700;48.822;9.270;2023-05-10T10:28:47;136.63;;;127.07;;
9322;SDS011;4700;48.822;9.270;2023-05-10T10:31:39;123.37;;;116.33;;
9322;SDS011;4700;48.822;9.270;2023-05-10T10:34:29;151.47;;;140.90;;
9322;SDS011;4700;48.822;9.270;2023-05-10T10:37:18;147.90;;;136.97;;
9322;SDS011;4700;48.822;9.270;2023-05-10T10:40:13;135.73;;;125.90;;
9322;SDS011;4700;48.822;9.270;2023-05-10T10:43:21;124.20;;;115.93;;
9322;SDS011;4700;48.822;9.270;2023-05-10T10:46:12;144.20;;;134.10;;
9322;SDS011;4700;48.822;9.270;2023-05-10T10:49:08;128.60;;;121.00;;
9322;SDS011;4700;48.822;9.270;2023-05-10T10:52:12;130.70;;;122.17;;
9322;SDS011;4700;48.822;9.270;2023-05-10T10:55:01;137.13;;;128.93;;
9322;SDS011;4700;48.822;9.270;2023-05-10T10:57:50;134.30;;;125.23;;
9322;SDS011;4700;48.822;9.270;2023-05-10T11:00:44;135.57;;;125.73;;
9322;SDS011;4700;48.822;9.270;2023-05-10T11:03:30;123.20;;;114.77;;
9322;SDS011;4700;48.822;9.270;2023-05-10T11:06:18;115.83;;;108.17;;
9322;SDS011;4700;48.822;9.270;2023-05-10T11:09:15;124.10;;;115.37;;
9322;SDS011;4700;48.822;9.270;2023-05-10T11:12:09;109.20;;;101.47;;
9322;SDS011;4700;48.822;9.270;2023-05-10T11:14:56;104.83;;;97.77;;
9322;SDS011;4700;48.822;9.270;2023-05-10T11:17:42;114.50;;;107.17;;
9322;SDS011;4700;48.822;9.270;2023-05-10T11:20:38;105.00;;;97.93;;
9322;SDS011;4700;48.822;9.270;2023-05-10T11:23:29;139.17;;;127.50;;
9322;SDS011;4700;48.822;9.270;2023-05-10T11:26:15;108.60;;;100.50;;
9322;SDS011;4700;48.822;9.270;2023-05-10T11:29:03;109.30;;;101.13;;
9322;SDS011;4700;48.822;9.270;2023-05-10T11:31:50;125.40;;;114.60;;
9322;SDS011;4700;48.822;9.270;2023-05-10T11:34:36;94.43;;;87.57;;
9322;SDS011;4700;48.822;9.270;2023-05-10T11:37:23;90.40;;;82.87;;
9322;SDS011;4700;48.822;9.270;2023-05-10T11:40:09;116.47;;;106.50;;
9322;SDS011;4700;48.822;9.270;2023-05-10T11:42:56;94.00;;;87.13;;
9322;SDS011;4700;48.822;9.270;2023-05-10T11:45:43;84.37;;;79.27;;
9322;SDS011;4700;48.822;9.270;2023-05-10T11:48:30;96.37;;;88.93;;
9322;SDS011;4700;48.822;9.270;2023-05-10T11:51:19;90.60;;;83.30;;
9322;SDS011;4700;48.822;9.270;2023-05-10T11:54:06;94.60;;;87.00;;
9322;SDS011;4700;48.822;9.270;2023-05-10T11:56:53;74.07;;;68.00;;
9322;SDS011;4700;48.822;9.270;2023-05-10T11:59:39;93.50;;;86.20;;
9322;SDS011;4700;48.822;9.270;2023-05-10T12:02:26;84.37;;;77.37;;
9322;SDS011;4700;48.822;9.270;2023-05-10T12:05:14;95.27;;;88.10;;
9322;SDS011;4700;48.822;9.270;2023-05-10T12:08:13;124.67;;;114.50;;
9322;SDS011;4700;48.822;9.270;2023-05-10T12:11:06;111.83;;;103.97;;
9322;SDS011;4700;48.822;9.270;2023-05-10T12:13:54;109.93;;;101.50;;
9322;SDS011;4700;48.822;9.270;2023-05-10T12:16:41;94.20;;;87.40;;
9322;SDS011;4700;48.822;9.270;2023-05-10T12:19:29;95.53;;;88.50;;
9322;SDS011;4700;48.822;9.270;2023-05-10T12:22:22;117.87;;;109.07;;
9322;SDS011;4700;48.822;9.270;2023-05-10T12:25:10;141.30;;;129.90;;
9322;SDS011;4700;48.822;9.270;2023-05-10T12:27:57;129.80;;;121.93;;
9322;SDS011;4700;48.822;9.270;2023-05-10T12:30:44;142.73;;;133.03;;
9322;SDS011;4700;48.822;9.270;2023-05-10T12:33:37;129.87;;;121.40;;
9322;SDS011;4700;48.822;9.270;2023-05-10T12:36:26;199.50;;;185.00;;
9322;SDS011;4700;48.822;9.270;2023-05-10T12:39:12;207.60;;;193.10;;
9322;SDS011;4700;48.822;9.270;2023-05-10T12:41:58;179.83;;;167.90;;
9322;SDS011;4700;48.822;9.270;2023-05-10T12:44:44;197.77;;;183.53;;
9322;SDS011;4700;48.822;9.270;2023-05-10T12:47:30;190.10;;;175.77;;
9322;SDS011;4700;48.822;9.270;2023-05-10T12:50:16;177.93;;;164.80;;
9322;SDS011;4700;48.822;9.270;2023-05-10T12:53:04;162.33;;;150.73;;
9322;SDS011;4700;48.822;9.270;2023-05-10T12:55:50;164.10;;;151.97;;
9322;SDS011;4700;48.822;9.270;2023-05-10T12:58:38;142.20;;;130.97;;
9322;SDS011;4700;48.822;9.270;2023-05-10T13:01:24;137.30;;;127.37;;
9322;SDS011;4700;48.822;9.270;2023-05-10T13:04:11;155.07;;;143.73;;
9322;SDS011;4700;48.822;9.270;2023-05-10T13:06:57;156.53;;;143.37;;
9322;SDS011;4700;48.822;9.270;2023-05-10T13:09:45;113.53;;;104.90;;
9322;SDS011;4700;48.822;9.270;2023-05-10T13:12:30;112.70;;;104.00;;
9322;SDS011;4700;48.822;9.270;2023-05-10T13:15:26;82.07;;;77.13;;
9322;SDS011;4700;48.822;9.270;2023-05-10T13:18:12;120.93;;;111.33;;
9322;SDS011;4700;48.822;9.270;2023-05-10T13:20:58;119.47;;;110.73;;
9322;SDS011;4700;48.822;9.270;2023-05-10T13:23:44;143.70;;;132.23;;
9322;SDS011;4700;48.822;9.270;2023-05-10T13:26:31;153.43;;;143.67;;
9322;SDS011;4700;48.822;9.270;2023-05-10T13:29:17;188.50;;;175.70;;
9322;SDS011;4700;48.822;9.270;2023-05-10T13:32:04;208.80;;;192.33;;
9322;SDS011;4700;48.822;9.270;2023-05-10T13:34:53;223.83;;;205.10;;
9322;SDS011;4700;48.822;9.270;2023-05-10T13:37:39;200.80;;;186.17;;
9322;SDS011;4700;48.822;9.270;2023-05-10T13:40:25;224.07;;;209.13;;
9322;SDS011;4700;48.822;9.270;2023-05-10T13:43:14;208.37;;;192.43;;
9322;SDS011;4700;48.822;9.270;2023-05-10T13:46:03;216.67;;;198.77;;
9322;SDS011;4700;48.822;9.270;2023-05-10T13:48:49;209.90;;;193.07;;
9322;SDS011;4700;48.822;9.270;2023-05-10T13:51:35;201.83;;;185.37;;
9322;SDS011;4700;48.822;9.270;2023-05-10T13:54:21;202.63;;;185.63;;
9322;SDS011;4700;48.822;9.270;2023-05-10T13:57:06;220.33;;;202.03;;
9322;SDS011;4700;48.822;9.270;2023-05-10T13:59:54;205.37;;;188.90;;
9322;SDS011;4700;48.822;9.270;2023-05-10T14:02:41;226.90;;;209.23;;
9322;SDS011;4700;48.822;9.270;2023-05-10T14:05:26;234.93;;;219.07;;
9322;SDS011;4700;48.822;9.270;2023-05-10T14:08:12;231.40;;;214.90;;
9322;SDS011;4700;48.822;9.270;2023-05-10T14:10:58;244.27;;;224.13;;
9322;SDS011;4700;48.822;9.270;2023-05-10T14:13:44;204.17;;;187.73;;
9322;SDS011;4700;48.822;9.270;2023-05-10T14:16:32;212.70;;;195.07;;
9322;SDS011;4700;48.822;9.270;2023-05-10T14:19:17;224.97;;;205.70;;
9322;SDS011;4700;48.822;9.270;2023-05-10T14:22:03;211.13;;;193.50;;
9322;SDS011;4700;48.822;9.270;2023-05-10T14:24:49;204.73;;;187.50;;
9322;SDS011;4700;48.822;9.270;2023-05-10T14:27:34;207.40;;;192.50;;
9322;SDS011;4700;48.822;9.270;2023-05-10T14:30:20;147.27;;;137.50;;
9322;SDS011;4700;48.822;9.270;2023-05-10T14:33:07;133.47;;;125.50;;
9322;SDS011;4700;48.822;9.270;2023-05-10T14:35:53;185.30;;;170.77;;
9322;SDS011;4700;48.822;9.270;2023-05-10T14:38:40;180.40;;;166.47;;
9322;SDS011;4700;48.822;9.270;2023-05-10T14:41:26;195.23;;;181.57;;
9322;SDS011;4700;48.822;9.270;2023-05-10T14:44:11;176.60;;;163.50;;
9322;SDS011;4700;48.822;9.270;2023-05-10T14:47:01;205.10;;;188.87;;
9322;SDS011;4700;48.822;9.270;2023-05-10T14:49:48;204.80;;;191.00;;
9322;SDS011;4700;48.822;9.270;2023-05-10T14:52:34;218.40;;;200.17;;
9322;SDS011;4700;48.822;9.270;2023-05-10T14:55:20;220.80;;;205.33;;
9322;SDS011;4700;48.822;9.270;2023-05-10T14:58:08;207.67;;;192.17;;
9322;SDS011;4700;48.822;9.270;2023-05-10T15:00:53;206.73;;;189.93;;
9322;SDS011;4700;48.822;9.270;2023-05-10T15:03:40;220.93;;;202.00;;
9322;SDS011;4700;48.822;9.270;2023-05-10T15:06:31;205.67;;;188.53;;
9322;SDS011;4700;48.822;9.270;2023-05-10T15:11:48;171.93;;;158.40;;
9322;SDS011;4700;48.822;9.270;2023-05-10T15:14:34;212.77;;;194.93;;
9322;SDS011;4700;48.822;9.270;2023-05-10T15:17:20;203.90;;;188.03;;
9322;SDS011;4700;48.822;9.270;2023-05-10T15:20:06;198.47;;;182.47;;
9322;SDS011;4700;48.822;9.270;2023-05-10T15:22:59;196.93;;;180.93;;
9322;SDS011;4700;48.822;9.270;2023-05-10T15:25:45;203.80;;;189.47;;
9322;SDS011;4700;48.822;9.270;2023-05-10T15:28:33;214.27;;;196.40;;
9322;SDS011;4700;48.822;9.270;2023-05-10T15:31:19;219.60;;;201.00;;
9322;SDS011;4700;48.822;9.270;2023-05-10T15:34:05;200.40;;;183.13;;
9322;SDS011;4700;48.822;9.270;2023-05-10T15:36:50;207.67;;;189.83;;
9322;SDS011;4700;48.822;9.270;2023-05-10T15:39:38;198.60;;;181.70;;
9322;SDS011;4700;48.822;9.270;2023-05-10T15:42:23;211.10;;;192.67;;
9322;SDS011;4700;48.822;9.270;2023-05-10T15:45:10;212.63;;;194.50;;
9322;SDS011;4700;48.822;9.270;2023-05-10T15:47:55;197.30;;;180.83;;
9322;SDS011;4700;48.822;9.270;2023-05-10T15:50:42;218.10;;;199.10;;
9322;SDS011;4700;48.822;9.270;2023-05-10T15:53:28;204.63;;;187.23;;
9322;SDS011;4700;48.822;9.270;2023-05-10T15:56:16;199.33;;;182.40;;
9322;SDS011;4700;48.822;9.270;2023-05-10T15:59:02;188.97;;;173.07;;
9322;SDS011;4700;48.822;9.270;2023-05-10T16:01:48;202.53;;;185.53;;
9322;SDS011;4700;48.822;9.270;2023-05-10T16:04:35;184.90;;;172.40;;
9322;SDS011;4700;48.822;9.270;2023-05-10T16:07:21;216.57;;;197.37;;
9322;SDS011;4700;48.822;9.270;2023-05-10T16:10:08;189.60;;;174.20;;
9322;SDS011;4700;48.822;9.270;2023-05-10T16:12:55;200.70;;;183.70;;
9322;SDS011;4700;48.822;9.270;2023-05-10T16:15:42;188.23;;;172.03;;
9322;SDS011;4700;48.822;9.270;2023-05-10T16:18:28;181.97;;;166.13;;
9322;SDS011;4700;48.822;9.270;2023-05-10T16:21:13;199.43;;;181.77;;
9322;SDS011;4700;48.822;9.270;2023-05-10T16:23:59;204.30;;;187.17;;
9322;SDS011;4700;48.822;9.270;2023-05-10T16:26:47;181.77;;;165.83;;
9322;SDS011;4700;48.822;9.270;2023-05-10T16:29:34;179.87;;;164.67;;
9322;SDS011;4700;48.822;9.270;2023-05-10T16:32:19;171.43;;;157.10;;
9322;SDS011;4700;48.822;9.270;2023-05-10T16:35:06;167.20;;;152.80;;
9322;SDS011;4700;48.822;9.270;2023-05-10T16:37:52;163.37;;;149.70;;
9322;SDS011;4700;48.822;9.270;2023-05-10T16:40:38;170.93;;;156.73;;
9322;SDS011;4700;48.822;9.270;2023-05-10T16:43:24;168.47;;;153.87;;
9322;SDS011;4700;48.822;9.270;2023-05-10T16:46:11;167.07;;;153.17;;
9322;SDS011;4700;48.822;9.270;2023-05-10T16:48:57;163.97;;;150.57;;
9322;SDS011;4700;48.822;9.270;2023-05-10T16:51:43;179.20;;;164.00;;
9322;SDS011;4700;48.822;9.270;2023-05-10T16:54:28;168.20;;;153.47;;
9322;SDS011;4700;48.822;9.270;2023-05-10T16:57:14;155.70;;;142.17;;
9322;SDS011;4700;48.822;9.270;2023-05-10T17:00:00;150.50;;;137.57;;